sensor_id;sensor_type;location;lat;lon;timestamp;P1;durP1;ratioP1;P2;durP2;ratioP2
59233;SDS011;60776;51.702;7.462;2023-06-14T00:00:18;4.88;;;4.13;;
59233;SDS011;60776;51.702;7.462;2023-06-14T00:02:44;4.45;;;3.63;;
59233;SDS011;60776;51.702;7.462;2023-06-14T00:05:10;5.07;;;3.97;;
59233;SDS011;60776;51.702;7.462;2023-06-14T00:07:39;6.40;;;3.88;;
59233;SDS011;60776;51.702;7.462;2023-06-14T00:10:10;8.55;;;4.10;;
59233;SDS011;60776;51.702;7.462;2023-06-14T00:12:37;5.57;;;4.28;;
59233;SDS011;60776;51.702;7.462;2023-06-14T00:15:04;5.22;;;3.55;;
59233;SDS011;60776;51.702;7.462;2023-06-14T00:17:30;4.85;;;3.72;;
59233;SDS011;60776;51.702;7.462;2023-06-14T00:19:56;4.10;;;3.53;;
59233;SDS011;60776;51.702;7.462;2023-06-14T00:22:25;4.80;;;4.20;;
59233;SDS011;60776;51.702;7.462;2023-06-14T00:24:51;4.32;;;3.90;;
59233;SDS011;60776;51.702;7.462;2023-06-14T00:27:17;5.50;;;3.33;;
59233;SDS011;60776;51.702;7.462;2023-06-14T00:29:43;5.80;;;3.78;;
59233;SDS011;60776;51.702;7.462;2023-06-14T00:32:09;4.40;;;3.40;;
59233;SDS011;60776;51.702;7.462;2023-06-14T00:34:34;5.60;;;3.85;;
59233;SDS011;60776;51.702;7.462;2023-06-14T00:37:00;4.65;;;3.60;;
59233;SDS011;60776;51.702;7.462;2023-06-14T00:39:26;5.15;;;3.50;;
59233;SDS011;60776;51.702;7.462;2023-06-14T00:41:52;8.63;;;3.58;;
59233;SDS011;60776;51.702;7.462;2023-06-14T00:44:18;4.35;;;3.70;;
59233;SDS011;60776;51.702;7.462;2023-06-14T00:46:46;6.35;;;3.78;;
59233;SDS011;60776;51.702;7.462;2023-06-14T00:49:13;5.53;;;3.70;;
59233;SDS011;60776;51.702;7.462;2023-06-14T00:51:41;6.40;;;3.60;;
59233;SDS011;60776;51.702;7.462;2023-06-14T00:54:07;5.32;;;3.10;;
59233;SDS011;60776;51.702;7.462;2023-06-14T00:56:35;4.05;;;3.60;;
59233;SDS011;60776;51.702;7.462;2023-06-14T00:59:01;5.65;;;3.40;;
59233;SDS011;60776;51.702;7.462;2023-06-14T01:01:28;5.35;;;3.53;;
59233;SDS011;60776;51.702;7.462;2023-06-14T01:03:57;3.42;;;3.13;;
59233;SDS011;60776;51.702;7.462;2023-06-14T01:12:13;4.13;;;3.45;;
59233;SDS011;60776;51.702;7.462;2023-06-14T01:14:49;4.63;;;3.53;;
59233;SDS011;60776;51.702;7.462;2023-06-14T01:17:16;4.15;;;3.22;;
59233;SDS011;60776;51.702;7.462;2023-06-14T01:19:43;5.88;;;3.15;;
59233;SDS011;60776;51.702;7.462;2023-06-14T01:22:09;4.28;;;3.17;;
59233;SDS011;60776;51.702;7.462;2023-06-14T01:24:35;3.92;;;3.35;;
59233;SDS011;60776;51.702;7.462;2023-06-14T01:27:01;5.88;;;3.30;;
59233;SDS011;60776;51.702;7.462;2023-06-14T01:29:28;6.80;;;3.67;;
59233;SDS011;60776;51.702;7.462;2023-06-14T01:31:58;4.05;;;3.20;;
59233;SDS011;60776;51.702;7.462;2023-06-14T01:34:26;6.90;;;3.17;;
59233;SDS011;60776;51.702;7.462;2023-06-14T01:36:52;6.05;;;3.17;;
59233;SDS011;60776;51.702;7.462;2023-06-14T01:39:20;6.93;;;2.72;;
59233;SDS011;60776;51.702;7.462;2023-06-14T01:41:47;6.05;;;3.10;;
59233;SDS011;60776;51.702;7.462;2023-06-14T01:44:15;4.55;;;3.25;;
59233;SDS011;60776;51.702;7.462;2023-06-14T01:46:42;5.95;;;3.15;;
59233;SDS011;60776;51.702;7.462;2023-06-14T01:49:09;5.47;;;3.28;;
59233;SDS011;60776;51.702;7.462;2023-06-14T01:51:36;7.05;;;3.30;;
59233;SDS011;60776;51.702;7.462;2023-06-14T01:54:01;6.35;;;3.00;;
59233;SDS011;60776;51.702;7.462;2023-06-14T01:56:27;4.35;;;2.95;;
59233;SDS011;60776;51.702;7.462;2023-06-14T01:58:55;7.10;;;3.03;;
59233;SDS011;60776;51.702;7.462;2023-06-14T02:01:21;4.45;;;3.45;;
59233;SDS011;60776;51.702;7.462;2023-06-14T02:03:47;4.72;;;3.00;;
59233;SDS011;60776;51.702;7.462;2023-06-14T02:06:14;4.10;;;3.08;;
59233;SDS011;60776;51.702;7.462;2023-06-14T02:08:41;3.80;;;2.45;;
59233;SDS011;60776;51.702;7.462;2023-06-14T02:11:07;8.13;;;3.58;;
59233;SDS011;60776;51.702;7.462;2023-06-14T02:13:33;4.18;;;2.65;;
59233;SDS011;60776;51.702;7.462;2023-06-14T02:15:59;6.43;;;2.95;;
59233;SDS011;60776;51.702;7.462;2023-06-14T02:18:25;5.30;;;3.30;;
59233;SDS011;60776;51.702;7.462;2023-06-14T02:20:52;6.65;;;2.97;;
59233;SDS011;60776;51.702;7.462;2023-06-14T02:23:18;4.55;;;3.25;;
59233;SDS011;60776;51.702;7.462;2023-06-14T02:25:43;5.85;;;2.55;;
59233;SDS011;60776;51.702;7.462;2023-06-14T02:28:10;6.30;;;3.10;;
59233;SDS011;60776;51.702;7.462;2023-06-14T02:30:36;4.28;;;3.30;;
59233;SDS011;60776;51.702;7.462;2023-06-14T02:33:02;3.53;;;2.88;;
59233;SDS011;60776;51.702;7.462;2023-06-14T02:35:29;5.25;;;3.13;;
59233;SDS011;60776;51.702;7.462;2023-06-14T02:37:55;6.95;;;3.30;;
59233;SDS011;60776;51.702;7.462;2023-06-14T02:40:21;3.45;;;3.08;;
59233;SDS011;60776;51.702;7.462;2023-06-14T02:42:47;3.75;;;2.90;;
59233;SDS011;60776;51.702;7.462;2023-06-14T02:45:13;5.95;;;2.70;;
59233;SDS011;60776;51.702;7.462;2023-06-14T02:47:39;3.63;;;2.72;;
59233;SDS011;60776;51.702;7.462;2023-06-14T02:50:05;6.28;;;3.00;;
59233;SDS011;60776;51.702;7.462;2023-06-14T02:52:31;4.75;;;3.08;;
59233;SDS011;60776;51.702;7.462;2023-06-14T02:54:58;2.97;;;2.60;;
59233;SDS011;60776;51.702;7.462;2023-06-14T02:57:24;5.65;;;3.10;;
59233;SDS011;60776;51.702;7.462;2023-06-14T02:59:49;4.32;;;3.10;;
59233;SDS011;60776;51.702;7.462;2023-06-14T03:02:15;6.65;;;3.30;;
59233;SDS011;60776;51.702;7.462;2023-06-14T03:04:41;4.47;;;3.38;;
59233;SDS011;60776;51.702;7.462;2023-06-14T03:07:09;6.32;;;3.40;;
59233;SDS011;60776;51.702;7.462;2023-06-14T03:09:36;8.48;;;5.20;;
59233;SDS011;60776;51.702;7.462;2023-06-14T03:12:02;7.05;;;4.28;;
59233;SDS011;60776;51.702;7.462;2023-06-14T03:14:28;5.40;;;3.05;;
59233;SDS011;60776;51.702;7.462;2023-06-14T03:16:55;3.72;;;3.00;;
59233;SDS011;60776;51.702;7.462;2023-06-14T03:19:22;4.55;;;2.72;;
59233;SDS011;60776;51.702;7.462;2023-06-14T03:21:48;2.97;;;2.70;;
59233;SDS011;60776;51.702;7.462;2023-06-14T03:24:14;4.53;;;3.15;;
59233;SDS011;60776;51.702;7.462;2023-06-14T03:26:41;4.80;;;3.25;;
59233;SDS011;60776;51.702;7.462;2023-06-14T03:29:07;5.95;;;3.40;;
59233;SDS011;60776;51.702;7.462;2023-06-14T03:31:34;3.63;;;3.13;;
59233;SDS011;60776;51.702;7.462;2023-06-14T03:34:00;3.80;;;3.28;;
59233;SDS011;60776;51.702;7.462;2023-06-14T03:36:26;4.30;;;3.08;;
59233;SDS011;60776;51.702;7.462;2023-06-14T03:38:55;5.28;;;3.15;;
59233;SDS011;60776;51.702;7.462;2023-06-14T03:41:21;4.78;;;3.42;;
59233;SDS011;60776;51.702;7.462;2023-06-14T03:43:47;5.43;;;3.35;;
59233;SDS011;60776;51.702;7.462;2023-06-14T03:46:13;6.10;;;3.60;;
59233;SDS011;60776;51.702;7.462;2023-06-14T03:48:38;4.03;;;3.03;;
59233;SDS011;60776;51.702;7.462;2023-06-14T03:51:04;5.32;;;3.03;;
59233;SDS011;60776;51.702;7.462;2023-06-14T03:53:30;4.70;;;3.10;;
59233;SDS011;60776;51.702;7.462;2023-06-14T03:55:56;4.95;;;3.38;;
59233;SDS011;60776;51.702;7.462;2023-06-14T03:58:23;5.90;;;3.25;;
59233;SDS011;60776;51.702;7.462;2023-06-14T04:00:48;7.28;;;3.17;;
59233;SDS011;60776;51.702;7.462;2023-06-14T04:03:14;3.72;;;2.88;;
59233;SDS011;60776;51.702;7.462;2023-06-14T04:05:40;2.95;;;2.72;;
59233;SDS011;60776;51.702;7.462;2023-06-14T04:08:07;4.50;;;2.92;;
59233;SDS011;60776;51.702;7.462;2023-06-14T04:10:39;4.20;;;2.92;;
59233;SDS011;60776;51.702;7.462;2023-06-14T04:13:05;4.28;;;3.45;;
59233;SDS011;60776;51.702;7.462;2023-06-14T04:15:32;4.38;;;2.80;;
59233;SDS011;60776;51.702;7.462;2023-06-14T04:17:58;5.03;;;2.67;;
59233;SDS011;60776;51.702;7.462;2023-06-14T04:20:25;6.97;;;3.67;;
59233;SDS011;60776;51.702;7.462;2023-06-14T04:22:51;5.25;;;3.22;;
59233;SDS011;60776;51.702;7.462;2023-06-14T04:25:22;4.20;;;2.65;;
59233;SDS011;60776;51.702;7.462;2023-06-14T04:27:48;3.80;;;2.80;;
59233;SDS011;60776;51.702;7.462;2023-06-14T04:30:15;3.42;;;2.60;;
59233;SDS011;60776;51.702;7.462;2023-06-14T04:32:40;5.25;;;3.10;;
59233;SDS011;60776;51.702;7.462;2023-06-14T04:35:08;4.60;;;2.50;;
59233;SDS011;60776;51.702;7.462;2023-06-14T04:37:34;5.97;;;2.90;;
59233;SDS011;60776;51.702;7.462;2023-06-14T04:40:00;4.00;;;2.60;;
59233;SDS011;60776;51.702;7.462;2023-06-14T04:42:25;3.10;;;2.67;;
59233;SDS011;60776;51.702;7.462;2023-06-14T04:44:56;4.57;;;2.97;;
59233;SDS011;60776;51.702;7.462;2023-06-14T04:47:22;4.30;;;3.08;;
59233;SDS011;60776;51.702;7.462;2023-06-14T04:49:49;2.97;;;2.60;;
59233;SDS011;60776;51.702;7.462;2023-06-14T04:52:17;4.47;;;2.42;;
59233;SDS011;60776;51.702;7.462;2023-06-14T04:54:46;4.68;;;2.80;;
59233;SDS011;60776;51.702;7.462;2023-06-14T04:57:12;5.03;;;2.60;;
59233;SDS011;60776;51.702;7.462;2023-06-14T04:59:38;4.35;;;2.65;;
59233;SDS011;60776;51.702;7.462;2023-06-14T05:02:04;5.65;;;2.78;;
59233;SDS011;60776;51.702;7.462;2023-06-14T05:04:30;3.47;;;2.58;;
59233;SDS011;60776;51.702;7.462;2023-06-14T05:06:56;7.25;;;2.65;;
59233;SDS011;60776;51.702;7.462;2023-06-14T05:09:21;4.82;;;3.05;;
59233;SDS011;60776;51.702;7.462;2023-06-14T05:11:47;4.70;;;2.92;;
59233;SDS011;60776;51.702;7.462;2023-06-14T05:14:13;4.57;;;2.65;;
59233;SDS011;60776;51.702;7.462;2023-06-14T05:16:39;4.55;;;2.78;;
59233;SDS011;60776;51.702;7.462;2023-06-14T05:19:05;2.85;;;2.50;;
59233;SDS011;60776;51.702;7.462;2023-06-14T05:21:31;5.18;;;2.38;;
59233;SDS011;60776;51.702;7.462;2023-06-14T05:23:59;5.75;;;2.58;;
59233;SDS011;60776;51.702;7.462;2023-06-14T05:26:25;4.72;;;2.75;;
59233;SDS011;60776;51.702;7.462;2023-06-14T05:28:56;7.50;;;2.50;;
59233;SDS011;60776;51.702;7.462;2023-06-14T05:31:22;4.72;;;2.63;;
59233;SDS011;60776;51.702;7.462;2023-06-14T05:33:49;3.30;;;2.80;;
59233;SDS011;60776;51.702;7.462;2023-06-14T05:36:15;4.95;;;2.80;;
59233;SDS011;60776;51.702;7.462;2023-06-14T05:38:41;6.68;;;2.78;;
59233;SDS011;60776;51.702;7.462;2023-06-14T05:41:07;4.97;;;2.88;;
59233;SDS011;60776;51.702;7.462;2023-06-14T05:43:32;5.70;;;2.72;;
59233;SDS011;60776;51.702;7.462;2023-06-14T05:45:58;6.90;;;2.97;;
59233;SDS011;60776;51.702;7.462;2023-06-14T05:48:23;4.65;;;3.00;;
59233;SDS011;60776;51.702;7.462;2023-06-14T05:50:49;4.72;;;2.70;;
59233;SDS011;60776;51.702;7.462;2023-06-14T05:53:15;5.78;;;3.03;;
59233;SDS011;60776;51.702;7.462;2023-06-14T05:55:41;6.47;;;2.92;;
59233;SDS011;60776;51.702;7.462;2023-06-14T05:58:06;4.38;;;2.60;;
59233;SDS011;60776;51.702;7.462;2023-06-14T06:00:32;7.38;;;2.63;;
59233;SDS011;60776;51.702;7.462;2023-06-14T06:02:58;3.83;;;2.40;;
59233;SDS011;60776;51.702;7.462;2023-06-14T06:05:24;3.65;;;2.70;;
59233;SDS011;60776;51.702;7.462;2023-06-14T06:07:50;4.47;;;2.55;;
59233;SDS011;60776;51.702;7.462;2023-06-14T06:10:16;4.93;;;2.53;;
59233;SDS011;60776;51.702;7.462;2023-06-14T06:12:42;5.63;;;2.78;;
59233;SDS011;60776;51.702;7.462;2023-06-14T06:15:08;4.25;;;2.28;;
59233;SDS011;60776;51.702;7.462;2023-06-14T06:17:37;5.97;;;2.63;;
59233;SDS011;60776;51.702;7.462;2023-06-14T06:20:03;5.10;;;2.70;;
59233;SDS011;60776;51.702;7.462;2023-06-14T06:22:30;4.35;;;2.65;;
59233;SDS011;60776;51.702;7.462;2023-06-14T06:24:56;3.28;;;2.42;;
59233;SDS011;60776;51.702;7.462;2023-06-14T06:27:22;4.45;;;2.70;;
59233;SDS011;60776;51.702;7.462;2023-06-14T06:29:47;4.15;;;2.50;;
59233;SDS011;60776;51.702;7.462;2023-06-14T06:32:14;5.43;;;2.83;;
59233;SDS011;60776;51.702;7.462;2023-06-14T06:34:40;6.85;;;2.90;;
59233;SDS011;60776;51.702;7.462;2023-06-14T06:37:06;4.07;;;2.58;;
59233;SDS011;60776;51.702;7.462;2023-06-14T06:39:32;3.17;;;2.60;;
59233;SDS011;60776;51.702;7.462;2023-06-14T06:41:58;3.55;;;2.72;;
59233;SDS011;60776;51.702;7.462;2023-06-14T06:44:23;2.60;;;2.40;;
59233;SDS011;60776;51.702;7.462;2023-06-14T06:46:49;3.63;;;2.65;;
59233;SDS011;60776;51.702;7.462;2023-06-14T06:49:15;3.25;;;2.55;;
59233;SDS011;60776;51.702;7.462;2023-06-14T06:51:41;4.63;;;2.47;;
59233;SDS011;60776;51.702;7.462;2023-06-14T06:54:08;4.53;;;2.55;;
59233;SDS011;60776;51.702;7.462;2023-06-14T06:56:34;4.05;;;2.50;;
59233;SDS011;60776;51.702;7.462;2023-06-14T06:59:00;3.53;;;2.47;;
59233;SDS011;60776;51.702;7.462;2023-06-14T07:01:26;5.40;;;2.45;;
59233;SDS011;60776;51.702;7.462;2023-06-14T07:03:54;4.20;;;2.30;;
59233;SDS011;60776;51.702;7.462;2023-06-14T07:06:20;3.28;;;2.40;;
59233;SDS011;60776;51.702;7.462;2023-06-14T07:08:46;4.80;;;2.65;;
59233;SDS011;60776;51.702;7.462;2023-06-14T07:11:14;4.95;;;2.60;;
59233;SDS011;60776;51.702;7.462;2023-06-14T07:13:40;3.70;;;2.40;;
59233;SDS011;60776;51.702;7.462;2023-06-14T07:16:06;3.75;;;2.30;;
59233;SDS011;60776;51.702;7.462;2023-06-14T07:18:31;2.92;;;2.10;;
59233;SDS011;60776;51.702;7.462;2023-06-14T07:20:57;2.65;;;2.03;;
59233;SDS011;60776;51.702;7.462;2023-06-14T07:23:23;3.10;;;1.25;;
59233;SDS011;60776;51.702;7.462;2023-06-14T07:25:49;3.65;;;1.65;;
59233;SDS011;60776;51.702;7.462;2023-06-14T07:28:16;3.70;;;1.48;;
59233;SDS011;60776;51.702;7.462;2023-06-14T07:30:42;9.52;;;1.95;;
59233;SDS011;60776;51.702;7.462;2023-06-14T07:33:07;2.47;;;1.75;;
59233;SDS011;60776;51.702;7.462;2023-06-14T07:35:33;6.60;;;1.80;;
59233;SDS011;60776;51.702;7.462;2023-06-14T07:37:59;3.13;;;1.48;;
59233;SDS011;60776;51.702;7.462;2023-06-14T07:40:25;3.55;;;1.42;;
59233;SDS011;60776;51.702;7.462;2023-06-14T07:42:51;2.55;;;1.70;;
59233;SDS011;60776;51.702;7.462;2023-06-14T07:45:19;1.80;;;1.42;;
59233;SDS011;60776;51.702;7.462;2023-06-14T07:47:44;1.98;;;1.85;;
59233;SDS011;60776;51.702;7.462;2023-06-14T07:50:10;2.67;;;1.70;;
59233;SDS011;60776;51.702;7.462;2023-06-14T07:52:36;2.85;;;1.52;;
59233;SDS011;60776;51.702;7.462;2023-06-14T07:55:02;1.90;;;1.63;;
59233;SDS011;60776;51.702;7.462;2023-06-14T07:57:28;1.95;;;1.40;;
59233;SDS011;60776;51.702;7.462;2023-06-14T07:59:54;2.35;;;1.33;;
59233;SDS011;60776;51.702;7.462;2023-06-14T08:02:19;4.30;;;1.38;;
59233;SDS011;60776;51.702;7.462;2023-06-14T08:04:45;1.50;;;1.40;;
59233;SDS011;60776;51.702;7.462;2023-06-14T08:07:13;1.88;;;1.40;;
59233;SDS011;60776;51.702;7.462;2023-06-14T08:09:39;2.00;;;1.23;;
59233;SDS011;60776;51.702;7.462;2023-06-14T08:12:05;6.32;;;1.27;;
59233;SDS011;60776;51.702;7.462;2023-06-14T08:14:38;1.83;;;1.20;;
59233;SDS011;60776;51.702;7.462;2023-06-14T08:17:04;1.63;;;1.52;;
59233;SDS011;60776;51.702;7.462;2023-06-14T08:19:30;1.95;;;1.13;;
59233;SDS011;60776;51.702;7.462;2023-06-14T08:21:56;2.33;;;1.30;;
59233;SDS011;60776;51.702;7.462;2023-06-14T08:24:22;1.75;;;1.25;;
59233;SDS011;60776;51.702;7.462;2023-06-14T08:26:52;1.25;;;1.00;;
59233;SDS011;60776;51.702;7.462;2023-06-14T08:29:18;3.70;;;1.25;;
59233;SDS011;60776;51.702;7.462;2023-06-14T08:31:43;1.92;;;1.13;;
59233;SDS011;60776;51.702;7.462;2023-06-14T08:34:09;3.20;;;1.17;;
59233;SDS011;60776;51.702;7.462;2023-06-14T08:36:35;1.88;;;1.17;;
59233;SDS011;60776;51.702;7.462;2023-06-14T08:39:01;1.63;;;0.90;;
59233;SDS011;60776;51.702;7.462;2023-06-14T08:41:27;2.13;;;1.15;;
59233;SDS011;60776;51.702;7.462;2023-06-14T08:43:54;1.23;;;1.13;;
59233;SDS011;60776;51.702;7.462;2023-06-14T08:46:20;0.88;;;0.88;;
59233;SDS011;60776;51.702;7.462;2023-06-14T08:48:51;1.83;;;1.00;;
59233;SDS011;60776;51.702;7.462;2023-06-14T08:51:18;1.27;;;1.10;;
59233;SDS011;60776;51.702;7.462;2023-06-14T08:53:44;2.70;;;1.10;;
59233;SDS011;60776;51.702;7.462;2023-06-14T08:56:11;2.05;;;1.00;;
59233;SDS011;60776;51.702;7.462;2023-06-14T08:58:47;1.20;;;0.90;;
59233;SDS011;60776;51.702;7.462;2023-06-14T09:01:14;3.70;;;0.95;;
59233;SDS011;60776;51.702;7.462;2023-06-14T09:03:42;0.70;;;0.70;;
59233;SDS011;60776;51.702;7.462;2023-06-14T09:06:09;2.08;;;0.98;;
59233;SDS011;60776;51.702;7.462;2023-06-14T09:08:39;2.95;;;0.90;;
59233;SDS011;60776;51.702;7.462;2023-06-14T09:11:07;1.42;;;0.82;;
59233;SDS011;60776;51.702;7.462;2023-06-14T09:13:33;1.20;;;0.98;;
59233;SDS011;60776;51.702;7.462;2023-06-14T09:16:00;2.08;;;0.90;;
59233;SDS011;60776;51.702;7.462;2023-06-14T09:18:36;4.22;;;0.80;;
59233;SDS011;60776;51.702;7.462;2023-06-14T09:21:04;1.73;;;0.80;;
59233;SDS011;60776;51.702;7.462;2023-06-14T09:23:33;4.10;;;1.27;;
59233;SDS011;60776;51.702;7.462;2023-06-14T09:26:06;2.17;;;1.20;;
59233;SDS011;60776;51.702;7.462;2023-06-14T09:28:41;1.95;;;0.90;;
59233;SDS011;60776;51.702;7.462;2023-06-14T09:31:11;1.70;;;0.70;;
59233;SDS011;60776;51.702;7.462;2023-06-14T09:33:37;1.77;;;0.90;;
59233;SDS011;60776;51.702;7.462;2023-06-14T09:36:04;1.00;;;0.85;;
59233;SDS011;60776;51.702;7.462;2023-06-14T09:38:36;1.00;;;0.98;;
59233;SDS011;60776;51.702;7.462;2023-06-14T09:41:01;1.00;;;1.00;;
59233;SDS011;60776;51.702;7.462;2023-06-14T09:43:29;2.13;;;1.10;;
59233;SDS011;60776;51.702;7.462;2023-06-14T09:45:55;2.03;;;1.02;;
59233;SDS011;60776;51.702;7.462;2023-06-14T09:48:21;4.32;;;1.20;;
59233;SDS011;60776;51.702;7.462;2023-06-14T09:50:46;2.45;;;1.10;;
59233;SDS011;60776;51.702;7.462;2023-06-14T09:53:15;2.47;;;1.38;;
59233;SDS011;60776;51.702;7.462;2023-06-14T09:55:41;1.95;;;1.00;;
59233;SDS011;60776;51.702;7.462;2023-06-14T09:58:08;4.57;;;1.02;;
59233;SDS011;60776;51.702;7.462;2023-06-14T10:00:35;0.90;;;0.90;;
59233;SDS011;60776;51.702;7.462;2023-06-14T10:03:12;1.20;;;1.00;;
59233;SDS011;60776;51.702;7.462;2023-06-14T10:05:39;2.25;;;1.10;;
59233;SDS011;60776;51.702;7.462;2023-06-14T10:08:10;2.17;;;1.10;;
59233;SDS011;60776;51.702;7.462;2023-06-14T10:10:39;1.10;;;1.10;;
59233;SDS011;60776;51.702;7.462;2023-06-14T10:13:05;3.20;;;1.02;;
59233;SDS011;60776;51.702;7.462;2023-06-14T10:18:24;1.20;;;1.15;;
59233;SDS011;60776;51.702;7.462;2023-06-14T10:21:14;3.08;;;1.10;;
59233;SDS011;60776;51.702;7.462;2023-06-14T10:24:03;1.83;;;1.02;;
59233;SDS011;60776;51.702;7.462;2023-06-14T10:26:32;1.27;;;1.17;;
59233;SDS011;60776;51.702;7.462;2023-06-14T10:29:01;1.20;;;1.10;;
59233;SDS011;60776;51.702;7.462;2023-06-14T10:31:40;1.30;;;1.20;;
59233;SDS011;60776;51.702;7.462;2023-06-14T10:34:07;2.15;;;1.30;;
59233;SDS011;60776;51.702;7.462;2023-06-14T10:36:33;2.15;;;1.25;;
59233;SDS011;60776;51.702;7.462;2023-06-14T10:41:39;2.20;;;1.23;;
59233;SDS011;60776;51.702;7.462;2023-06-14T10:46:37;3.13;;;1.30;;
59233;SDS011;60776;51.702;7.462;2023-06-14T10:49:03;1.40;;;1.20;;
59233;SDS011;60776;51.702;7.462;2023-06-14T10:51:30;1.30;;;1.20;;
59233;SDS011;60776;51.702;7.462;2023-06-14T10:54:15;3.08;;;1.20;;
59233;SDS011;60776;51.702;7.462;2023-06-14T10:56:52;2.72;;;1.20;;
59233;SDS011;60776;51.702;7.462;2023-06-14T10:59:18;2.35;;;1.00;;
59233;SDS011;60776;51.702;7.462;2023-06-14T11:04:24;2.17;;;1.45;;
59233;SDS011;60776;51.702;7.462;2023-06-14T11:07:04;3.20;;;1.50;;
59233;SDS011;60776;51.702;7.462;2023-06-14T11:12:54;2.58;;;1.20;;
59233;SDS011;60776;51.702;7.462;2023-06-14T11:15:20;4.00;;;1.20;;
59233;SDS011;60776;51.702;7.462;2023-06-14T11:17:53;2.88;;;1.30;;
59233;SDS011;60776;51.702;7.462;2023-06-14T11:20:24;2.30;;;1.45;;
59233;SDS011;60776;51.702;7.462;2023-06-14T11:22:51;1.50;;;1.40;;
59233;SDS011;60776;51.702;7.462;2023-06-14T11:25:17;4.13;;;1.20;;
59233;SDS011;60776;51.702;7.462;2023-06-14T11:27:43;1.40;;;1.30;;
59233;SDS011;60776;51.702;7.462;2023-06-14T11:30:10;1.88;;;1.50;;
59233;SDS011;60776;51.702;7.462;2023-06-14T11:32:36;3.67;;;1.35;;
59233;SDS011;60776;51.702;7.462;2023-06-14T11:35:03;7.72;;;1.52;;
59233;SDS011;60776;51.702;7.462;2023-06-14T11:37:30;2.50;;;1.50;;
59233;SDS011;60776;51.702;7.462;2023-06-14T11:39:58;1.73;;;1.50;;
59233;SDS011;60776;51.702;7.462;2023-06-14T11:42:29;2.22;;;1.40;;
59233;SDS011;60776;51.702;7.462;2023-06-14T11:44:55;1.33;;;1.23;;
59233;SDS011;60776;51.702;7.462;2023-06-14T11:47:21;1.50;;;1.40;;
59233;SDS011;60776;51.702;7.462;2023-06-14T11:49:47;2.45;;;1.50;;
59233;SDS011;60776;51.702;7.462;2023-06-14T11:52:13;2.58;;;1.30;;
59233;SDS011;60776;51.702;7.462;2023-06-14T11:54:39;3.47;;;1.77;;
59233;SDS011;60776;51.702;7.462;2023-06-14T11:57:09;1.88;;;1.60;;
59233;SDS011;60776;51.702;7.462;2023-06-14T11:59:39;7.13;;;1.60;;
59233;SDS011;60776;51.702;7.462;2023-06-14T12:02:05;2.25;;;1.70;;
59233;SDS011;60776;51.702;7.462;2023-06-14T12:04:31;3.42;;;1.60;;
59233;SDS011;60776;51.702;7.462;2023-06-14T12:06:57;2.30;;;1.83;;
59233;SDS011;60776;51.702;7.462;2023-06-14T12:12:24;5.05;;;1.75;;
59233;SDS011;60776;51.702;7.462;2023-06-14T12:14:50;1.70;;;1.60;;
59233;SDS011;60776;51.702;7.462;2023-06-14T12:17:17;3.53;;;1.85;;
59233;SDS011;60776;51.702;7.462;2023-06-14T12:19:43;3.22;;;1.70;;
59233;SDS011;60776;51.702;7.462;2023-06-14T12:22:13;2.40;;;1.70;;
59233;SDS011;60776;51.702;7.462;2023-06-14T12:24:39;1.65;;;1.40;;
59233;SDS011;60776;51.702;7.462;2023-06-14T12:27:08;2.70;;;1.60;;
59233;SDS011;60776;51.702;7.462;2023-06-14T12:29:34;1.98;;;1.52;;
59233;SDS011;60776;51.702;7.462;2023-06-14T12:32:00;1.52;;;1.40;;
59233;SDS011;60776;51.702;7.462;2023-06-14T12:34:26;1.50;;;1.40;;
59233;SDS011;60776;51.702;7.462;2023-06-14T12:36:53;2.80;;;1.95;;
59233;SDS011;60776;51.702;7.462;2023-06-14T12:39:19;2.25;;;1.65;;
59233;SDS011;60776;51.702;7.462;2023-06-14T12:41:45;5.05;;;2.00;;
59233;SDS011;60776;51.702;7.462;2023-06-14T12:44:12;3.33;;;1.80;;
59233;SDS011;60776;51.702;7.462;2023-06-14T12:46:39;1.88;;;1.77;;
59233;SDS011;60776;51.702;7.462;2023-06-14T12:49:07;2.60;;;1.90;;
59233;SDS011;60776;51.702;7.462;2023-06-14T12:51:33;4.65;;;1.80;;
59233;SDS011;60776;51.702;7.462;2023-06-14T12:53:59;3.42;;;1.92;;
59233;SDS011;60776;51.702;7.462;2023-06-14T12:56:25;2.45;;;1.95;;
59233;SDS011;60776;51.702;7.462;2023-06-14T12:58:51;3.00;;;1.80;;
59233;SDS011;60776;51.702;7.462;2023-06-14T13:01:17;2.88;;;2.13;;
59233;SDS011;60776;51.702;7.462;2023-06-14T13:03:43;2.42;;;2.15;;
59233;SDS011;60776;51.702;7.462;2023-06-14T13:06:08;5.15;;;2.20;;
59233;SDS011;60776;51.702;7.462;2023-06-14T13:08:34;2.63;;;2.20;;
59233;SDS011;60776;51.702;7.462;2023-06-14T13:11:00;2.00;;;1.88;;
59233;SDS011;60776;51.702;7.462;2023-06-14T13:13:25;2.33;;;1.90;;
59233;SDS011;60776;51.702;7.462;2023-06-14T13:15:52;2.40;;;2.20;;
59233;SDS011;60776;51.702;7.462;2023-06-14T13:18:18;2.50;;;2.28;;
59233;SDS011;60776;51.702;7.462;2023-06-14T13:20:45;3.65;;;2.30;;
59233;SDS011;60776;51.702;7.462;2023-06-14T13:23:11;2.40;;;2.20;;
59233;SDS011;60776;51.702;7.462;2023-06-14T13:25:37;3.88;;;2.10;;
59233;SDS011;60776;51.702;7.462;2023-06-14T13:28:05;2.17;;;2.08;;
59233;SDS011;60776;51.702;7.462;2023-06-14T13:30:32;5.10;;;2.00;;
59233;SDS011;60776;51.702;7.462;2023-06-14T13:32:58;2.10;;;1.90;;
59233;SDS011;60776;51.702;7.462;2023-06-14T13:35:24;2.15;;;2.03;;
59233;SDS011;60776;51.702;7.462;2023-06-14T13:37:50;3.20;;;1.95;;
59233;SDS011;60776;51.702;7.462;2023-06-14T13:40:16;3.20;;;2.15;;
59233;SDS011;60776;51.702;7.462;2023-06-14T13:42:42;5.13;;;2.30;;
59233;SDS011;60776;51.702;7.462;2023-06-14T13:45:08;6.63;;;2.17;;
59233;SDS011;60776;51.702;7.462;2023-06-14T13:47:35;2.10;;;1.90;;
59233;SDS011;60776;51.702;7.462;2023-06-14T13:50:00;2.20;;;2.00;;
59233;SDS011;60776;51.702;7.462;2023-06-14T13:52:27;3.78;;;1.80;;
59233;SDS011;60776;51.702;7.462;2023-06-14T13:54:52;2.42;;;2.13;;
59233;SDS011;60776;51.702;7.462;2023-06-14T13:57:19;3.70;;;2.03;;
59233;SDS011;60776;51.702;7.462;2023-06-14T13:59:45;2.80;;;1.80;;
59233;SDS011;60776;51.702;7.462;2023-06-14T14:02:11;4.60;;;2.00;;
59233;SDS011;60776;51.702;7.462;2023-06-14T14:04:37;2.92;;;2.03;;
59233;SDS011;60776;51.702;7.462;2023-06-14T14:07:03;4.85;;;2.20;;
59233;SDS011;60776;51.702;7.462;2023-06-14T14:09:30;5.28;;;2.10;;
59233;SDS011;60776;51.702;7.462;2023-06-14T14:11:57;2.40;;;1.65;;
59233;SDS011;60776;51.702;7.462;2023-06-14T14:14:23;2.28;;;2.08;;
59233;SDS011;60776;51.702;7.462;2023-06-14T14:16:49;3.28;;;1.95;;
59233;SDS011;60776;51.702;7.462;2023-06-14T14:19:19;4.05;;;2.00;;
59233;SDS011;60776;51.702;7.462;2023-06-14T14:21:46;1.90;;;1.70;;
59233;SDS011;60776;51.702;7.462;2023-06-14T14:24:12;2.33;;;2.05;;
59233;SDS011;60776;51.702;7.462;2023-06-14T14:26:38;5.07;;;1.98;;
59233;SDS011;60776;51.702;7.462;2023-06-14T14:29:04;2.53;;;1.92;;
59233;SDS011;60776;51.702;7.462;2023-06-14T14:31:30;1.88;;;1.75;;
59233;SDS011;60776;51.702;7.462;2023-06-14T14:33:56;5.53;;;2.05;;
59233;SDS011;60776;51.702;7.462;2023-06-14T14:36:22;3.55;;;2.53;;
59233;SDS011;60776;51.702;7.462;2023-06-14T14:38:47;2.40;;;1.80;;
59233;SDS011;60776;51.702;7.462;2023-06-14T14:41:13;2.22;;;2.00;;
59233;SDS011;60776;51.702;7.462;2023-06-14T14:43:39;6.28;;;2.15;;
59233;SDS011;60776;51.702;7.462;2023-06-14T14:46:04;4.00;;;1.85;;
59233;SDS011;60776;51.702;7.462;2023-06-14T14:48:30;6.63;;;2.22;;
59233;SDS011;60776;51.702;7.462;2023-06-14T14:50:56;1.75;;;1.65;;
59233;SDS011;60776;51.702;7.462;2023-06-14T14:53:22;2.28;;;2.03;;
59233;SDS011;60776;51.702;7.462;2023-06-14T14:55:48;3.25;;;1.85;;
59233;SDS011;60776;51.702;7.462;2023-06-14T14:58:14;6.15;;;2.00;;
59233;SDS011;60776;51.702;7.462;2023-06-14T15:00:43;2.90;;;1.80;;
59233;SDS011;60776;51.702;7.462;2023-06-14T15:03:10;4.47;;;2.08;;
59233;SDS011;60776;51.702;7.462;2023-06-14T15:05:36;2.40;;;2.20;;
59233;SDS011;60776;51.702;7.462;2023-06-14T15:08:02;2.42;;;2.22;;